sensor_id;sensor_type;location;lat;lon;timestamp;P1;durP1;ratioP1;P2;durP2;ratioP2
51248;SDS011;39642;47.556;18.728;2022-12-29T00:01:16;13.68;;;5.72;;
51248;SDS011;39642;47.556;18.728;2022-12-29T00:03:45;14.20;;;5.68;;
51248;SDS011;39642;47.556;18.728;2022-12-29T00:06:11;14.25;;;5.85;;
51248;SDS011;39642;47.556;18.728;2022-12-29T00:08:37;14.27;;;5.72;;
51248;SDS011;39642;47.556;18.728;2022-12-29T00:11:09;13.80;;;5.57;;
51248;SDS011;39642;47.556;18.728;2022-12-29T00:13:40;13.07;;;5.43;;
51248;SDS011;39642;47.556;18.728;2022-12-29T00:16:24;12.75;;;5.47;;
51248;SDS011;39642;47.556;18.728;2022-12-29T00:18:51;12.35;;;5.62;;
51248;SDS011;39642;47.556;18.728;2022-12-29T00:21:18;13.80;;;5.87;;
51248;SDS011;39642;47.556;18.728;2022-12-29T00:24:04;12.95;;;5.30;;
51248;SDS011;39642;47.556;18.728;2022-12-29T00:26:53;13.10;;;5.78;;
51248;SDS011;39642;47.556;18.728;2022-12-29T00:29:42;12.52;;;5.32;;
51248;SDS011;39642;47.556;18.728;2022-12-29T00:32:26;12.75;;;5.30;;
51248;SDS011;39642;47.556;18.728;2022-12-29T00:35:11;12.50;;;5.62;;
51248;SDS011;39642;47.556;18.728;2022-12-29T00:37:41;12.88;;;5.28;;
51248;SDS011;39642;47.556;18.728;2022-12-29T00:40:28;13.93;;;5.87;;
51248;SDS011;39642;47.556;18.728;2022-12-29T00:43:12;12.00;;;5.10;;
51248;SDS011;39642;47.556;18.728;2022-12-29T00:45:57;12.25;;;5.28;;
51248;SDS011;39642;47.556;18.728;2022-12-29T00:48:22;12.15;;;5.10;;
51248;SDS011;39642;47.556;18.728;2022-12-29T00:51:07;13.30;;;5.20;;
51248;SDS011;39642;47.556;18.728;2022-12-29T00:53:34;12.95;;;5.62;;
51248;SDS011;39642;47.556;18.728;2022-12-29T00:56:00;12.82;;;5.50;;
51248;SDS011;39642;47.556;18.728;2022-12-29T00:58:27;12.55;;;5.68;;
51248;SDS011;39642;47.556;18.728;2022-12-29T01:01:00;12.65;;;5.47;;
51248;SDS011;39642;47.556;18.728;2022-12-29T01:03:27;12.75;;;5.20;;
51248;SDS011;39642;47.556;18.728;2022-12-29T01:05:53;13.52;;;5.55;;
51248;SDS011;39642;47.556;18.728;2022-12-29T01:08:19;12.88;;;5.32;;
51248;SDS011;39642;47.556;18.728;2022-12-29T01:10:45;13.30;;;5.55;;
51248;SDS011;39642;47.556;18.728;2022-12-29T01:13:11;12.20;;;5.07;;
51248;SDS011;39642;47.556;18.728;2022-12-29T01:15:37;13.85;;;5.85;;
51248;SDS011;39642;47.556;18.728;2022-12-29T01:18:03;12.75;;;5.53;;
51248;SDS011;39642;47.556;18.728;2022-12-29T01:20:28;12.63;;;5.28;;
51248;SDS011;39642;47.556;18.728;2022-12-29T01:22:54;11.70;;;5.03;;
51248;SDS011;39642;47.556;18.728;2022-12-29T01:25:20;13.27;;;5.50;;
51248;SDS011;39642;47.556;18.728;2022-12-29T01:27:46;12.90;;;5.75;;
51248;SDS011;39642;47.556;18.728;2022-12-29T01:30:12;13.10;;;5.47;;
51248;SDS011;39642;47.556;18.728;2022-12-29T01:32:38;13.10;;;5.70;;
51248;SDS011;39642;47.556;18.728;2022-12-29T01:35:04;12.82;;;5.43;;
51248;SDS011;39642;47.556;18.728;2022-12-29T01:37:30;14.43;;;5.53;;
51248;SDS011;39642;47.556;18.728;2022-12-29T01:39:56;11.82;;;5.30;;
51248;SDS011;39642;47.556;18.728;2022-12-29T01:42:22;12.40;;;5.40;;
51248;SDS011;39642;47.556;18.728;2022-12-29T01:44:52;12.40;;;5.45;;
51248;SDS011;39642;47.556;18.728;2022-12-29T01:53:05;12.30;;;5.20;;
51248;SDS011;39642;47.556;18.728;2022-12-29T01:55:44;12.18;;;5.53;;
51248;SDS011;39642;47.556;18.728;2022-12-29T01:58:13;13.38;;;5.22;;
51248;SDS011;39642;47.556;18.728;2022-12-29T02:00:43;12.98;;;5.37;;
51248;SDS011;39642;47.556;18.728;2022-12-29T02:03:09;14.13;;;5.28;;
51248;SDS011;39642;47.556;18.728;2022-12-29T02:08:13;14.00;;;5.43;;
51248;SDS011;39642;47.556;18.728;2022-12-29T02:10:39;12.60;;;5.30;;
51248;SDS011;39642;47.556;18.728;2022-12-29T02:13:07;13.52;;;5.03;;
51248;SDS011;39642;47.556;18.728;2022-12-29T02:16:17;10.90;;;4.95;;
51248;SDS011;39642;47.556;18.728;2022-12-29T02:29:40;13.40;;;5.50;;
51248;SDS011;39642;47.556;18.728;2022-12-29T02:37:43;12.13;;;5.05;;
51248;SDS011;39642;47.556;18.728;2022-12-29T02:40:25;13.55;;;5.20;;
51248;SDS011;39642;47.556;18.728;2022-12-29T02:42:59;12.70;;;5.40;;
51248;SDS011;39642;47.556;18.728;2022-12-29T02:48:24;12.20;;;5.05;;
51248;SDS011;39642;47.556;18.728;2022-12-29T02:51:03;13.05;;;5.00;;
51248;SDS011;39642;47.556;18.728;2022-12-29T02:53:33;11.93;;;5.03;;
51248;SDS011;39642;47.556;18.728;2022-12-29T02:56:20;11.48;;;4.97;;
51248;SDS011;39642;47.556;18.728;2022-12-29T02:58:46;11.00;;;4.45;;
51248;SDS011;39642;47.556;18.728;2022-12-29T03:14:34;12.25;;;4.95;;
51248;SDS011;39642;47.556;18.728;2022-12-29T03:19:57;11.85;;;4.87;;
51248;SDS011;39642;47.556;18.728;2022-12-29T03:22:27;12.25;;;5.03;;
51248;SDS011;39642;47.556;18.728;2022-12-29T03:25:02;11.45;;;5.00;;
51248;SDS011;39642;47.556;18.728;2022-12-29T03:27:49;12.65;;;5.10;;
51248;SDS011;39642;47.556;18.728;2022-12-29T03:30:20;12.15;;;4.87;;
51248;SDS011;39642;47.556;18.728;2022-12-29T03:32:49;11.60;;;4.75;;
51248;SDS011;39642;47.556;18.728;2022-12-29T03:35:19;12.50;;;5.28;;
51248;SDS011;39642;47.556;18.728;2022-12-29T03:37:53;11.00;;;4.78;;
51248;SDS011;39642;47.556;18.728;2022-12-29T03:40:25;12.88;;;4.70;;
51248;SDS011;39642;47.556;18.728;2022-12-29T03:42:53;10.90;;;4.60;;
51248;SDS011;39642;47.556;18.728;2022-12-29T03:45:20;11.20;;;4.68;;
51248;SDS011;39642;47.556;18.728;2022-12-29T03:47:46;11.60;;;4.70;;
51248;SDS011;39642;47.556;18.728;2022-12-29T03:50:12;11.90;;;4.80;;
51248;SDS011;39642;47.556;18.728;2022-12-29T03:52:38;11.80;;;4.70;;
51248;SDS011;39642;47.556;18.728;2022-12-29T03:55:05;12.00;;;4.97;;
51248;SDS011;39642;47.556;18.728;2022-12-29T03:57:31;12.13;;;4.90;;
51248;SDS011;39642;47.556;18.728;2022-12-29T03:59:57;11.15;;;4.68;;
51248;SDS011;39642;47.556;18.728;2022-12-29T04:02:22;12.25;;;4.93;;
51248;SDS011;39642;47.556;18.728;2022-12-29T04:04:49;12.13;;;4.95;;
51248;SDS011;39642;47.556;18.728;2022-12-29T04:07:15;10.63;;;4.25;;
51248;SDS011;39642;47.556;18.728;2022-12-29T04:09:41;11.77;;;4.95;;
51248;SDS011;39642;47.556;18.728;2022-12-29T04:12:07;11.88;;;4.80;;
51248;SDS011;39642;47.556;18.728;2022-12-29T04:14:32;10.60;;;4.65;;
51248;SDS011;39642;47.556;18.728;2022-12-29T04:16:58;11.48;;;4.35;;
51248;SDS011;39642;47.556;18.728;2022-12-29T04:19:24;11.80;;;4.60;;
51248;SDS011;39642;47.556;18.728;2022-12-29T04:21:50;11.00;;;4.68;;
51248;SDS011;39642;47.556;18.728;2022-12-29T04:24:16;11.45;;;4.72;;
51248;SDS011;39642;47.556;18.728;2022-12-29T04:26:42;11.77;;;4.78;;
51248;SDS011;39642;47.556;18.728;2022-12-29T04:29:08;11.77;;;4.65;;
51248;SDS011;39642;47.556;18.728;2022-12-29T04:31:34;11.27;;;4.70;;
51248;SDS011;39642;47.556;18.728;2022-12-29T04:34:00;10.55;;;4.30;;
51248;SDS011;39642;47.556;18.728;2022-12-29T04:36:26;12.27;;;4.80;;
51248;SDS011;39642;47.556;18.728;2022-12-29T04:38:51;11.60;;;4.60;;
51248;SDS011;39642;47.556;18.728;2022-12-29T04:41:17;11.55;;;4.65;;
51248;SDS011;39642;47.556;18.728;2022-12-29T04:43:43;11.65;;;4.10;;
51248;SDS011;39642;47.556;18.728;2022-12-29T04:46:09;11.77;;;4.65;;
51248;SDS011;39642;47.556;18.728;2022-12-29T04:48:35;11.48;;;4.47;;
51248;SDS011;39642;47.556;18.728;2022-12-29T04:51:01;11.35;;;4.50;;
51248;SDS011;39642;47.556;18.728;2022-12-29T04:53:27;11.40;;;4.70;;
51248;SDS011;39642;47.556;18.728;2022-12-29T04:55:53;11.30;;;4.35;;
51248;SDS011;39642;47.556;18.728;2022-12-29T04:58:19;12.30;;;4.35;;
51248;SDS011;39642;47.556;18.728;2022-12-29T05:00:45;11.30;;;4.55;;
51248;SDS011;39642;47.556;18.728;2022-12-29T05:03:11;11.23;;;4.25;;
51248;SDS011;39642;47.556;18.728;2022-12-29T05:05:37;11.90;;;4.40;;
51248;SDS011;39642;47.556;18.728;2022-12-29T05:08:03;11.85;;;4.45;;
51248;SDS011;39642;47.556;18.728;2022-12-29T05:10:29;13.60;;;5.07;;
51248;SDS011;39642;47.556;18.728;2022-12-29T05:12:55;11.20;;;4.65;;
51248;SDS011;39642;47.556;18.728;2022-12-29T05:15:21;12.00;;;4.43;;
51248;SDS011;39642;47.556;18.728;2022-12-29T05:17:47;12.20;;;4.68;;
51248;SDS011;39642;47.556;18.728;2022-12-29T05:20:13;11.57;;;4.47;;
51248;SDS011;39642;47.556;18.728;2022-12-29T05:22:39;10.85;;;4.53;;
51248;SDS011;39642;47.556;18.728;2022-12-29T05:25:05;11.43;;;4.45;;
51248;SDS011;39642;47.556;18.728;2022-12-29T05:27:31;11.80;;;4.53;;
51248;SDS011;39642;47.556;18.728;2022-12-29T05:29:56;10.77;;;4.20;;
51248;SDS011;39642;47.556;18.728;2022-12-29T05:32:22;11.45;;;4.40;;
51248;SDS011;39642;47.556;18.728;2022-12-29T05:34:48;10.88;;;4.53;;
51248;SDS011;39642;47.556;18.728;2022-12-29T05:37:15;10.80;;;4.28;;
51248;SDS011;39642;47.556;18.728;2022-12-29T05:39:41;12.60;;;4.30;;
51248;SDS011;39642;47.556;18.728;2022-12-29T05:42:06;10.70;;;4.30;;
51248;SDS011;39642;47.556;18.728;2022-12-29T05:44:32;11.77;;;4.70;;
51248;SDS011;39642;47.556;18.728;2022-12-29T05:46:58;11.68;;;4.65;;
51248;SDS011;39642;47.556;18.728;2022-12-29T05:49:24;11.25;;;4.45;;
51248;SDS011;39642;47.556;18.728;2022-12-29T05:51:50;11.48;;;4.62;;
51248;SDS011;39642;47.556;18.728;2022-12-29T05:54:16;11.27;;;4.68;;
51248;SDS011;39642;47.556;18.728;2022-12-29T05:56:42;11.05;;;4.57;;
51248;SDS011;39642;47.556;18.728;2022-12-29T05:59:07;12.05;;;4.62;;
51248;SDS011;39642;47.556;18.728;2022-12-29T06:01:33;11.15;;;4.60;;
51248;SDS011;39642;47.556;18.728;2022-12-29T06:03:59;11.88;;;4.65;;
51248;SDS011;39642;47.556;18.728;2022-12-29T06:06:26;12.35;;;4.75;;
51248;SDS011;39642;47.556;18.728;2022-12-29T06:08:51;11.85;;;4.57;;
51248;SDS011;39642;47.556;18.728;2022-12-29T06:11:17;11.65;;;4.60;;
51248;SDS011;39642;47.556;18.728;2022-12-29T06:13:43;11.80;;;4.80;;
51248;SDS011;39642;47.556;18.728;2022-12-29T06:16:09;11.45;;;4.82;;
51248;SDS011;39642;47.556;18.728;2022-12-29T06:18:35;11.93;;;4.45;;
51248;SDS011;39642;47.556;18.728;2022-12-29T06:21:01;11.88;;;4.55;;
51248;SDS011;39642;47.556;18.728;2022-12-29T06:23:28;11.23;;;4.45;;
51248;SDS011;39642;47.556;18.728;2022-12-29T06:25:54;11.82;;;4.85;;
51248;SDS011;39642;47.556;18.728;2022-12-29T06:28:20;13.48;;;4.80;;
51248;SDS011;39642;47.556;18.728;2022-12-29T06:30:46;11.82;;;4.70;;
51248;SDS011;39642;47.556;18.728;2022-12-29T06:33:14;11.32;;;4.50;;
51248;SDS011;39642;47.556;18.728;2022-12-29T06:35:41;12.55;;;4.68;;
51248;SDS011;39642;47.556;18.728;2022-12-29T06:38:08;11.45;;;4.60;;
51248;SDS011;39642;47.556;18.728;2022-12-29T06:40:34;10.93;;;4.40;;
51248;SDS011;39642;47.556;18.728;2022-12-29T06:43:00;11.85;;;4.47;;
51248;SDS011;39642;47.556;18.728;2022-12-29T06:45:25;10.73;;;4.35;;
51248;SDS011;39642;47.556;18.728;2022-12-29T06:47:51;11.82;;;4.30;;
51248;SDS011;39642;47.556;18.728;2022-12-29T06:50:17;11.27;;;4.18;;
51248;SDS011;39642;47.556;18.728;2022-12-29T06:52:43;11.15;;;4.50;;
51248;SDS011;39642;47.556;18.728;2022-12-29T06:55:09;12.13;;;4.30;;
51248;SDS011;39642;47.556;18.728;2022-12-29T06:57:35;12.30;;;4.82;;
51248;SDS011;39642;47.556;18.728;2022-12-29T07:00:01;11.38;;;4.37;;
51248;SDS011;39642;47.556;18.728;2022-12-29T07:02:27;11.50;;;4.53;;
51248;SDS011;39642;47.556;18.728;2022-12-29T07:04:53;13.20;;;4.47;;
51248;SDS011;39642;47.556;18.728;2022-12-29T07:07:20;11.80;;;4.50;;
51248;SDS011;39642;47.556;18.728;2022-12-29T07:09:46;10.98;;;4.22;;
51248;SDS011;39642;47.556;18.728;2022-12-29T07:12:12;10.27;;;4.15;;
51248;SDS011;39642;47.556;18.728;2022-12-29T07:14:38;12.10;;;4.70;;
51248;SDS011;39642;47.556;18.728;2022-12-29T07:17:05;10.80;;;4.55;;
51248;SDS011;39642;47.556;18.728;2022-12-29T07:19:32;11.35;;;4.43;;
51248;SDS011;39642;47.556;18.728;2022-12-29T07:21:58;10.68;;;4.40;;
51248;SDS011;39642;47.556;18.728;2022-12-29T07:24:24;12.27;;;5.03;;
51248;SDS011;39642;47.556;18.728;2022-12-29T07:26:51;12.27;;;4.57;;
51248;SDS011;39642;47.556;18.728;2022-12-29T07:29:17;11.57;;;4.55;;
51248;SDS011;39642;47.556;18.728;2022-12-29T07:31:44;11.80;;;4.37;;
51248;SDS011;39642;47.556;18.728;2022-12-29T07:34:10;11.73;;;4.45;;
51248;SDS011;39642;47.556;18.728;2022-12-29T07:36:36;11.55;;;4.65;;
51248;SDS011;39642;47.556;18.728;2022-12-29T07:39:02;11.52;;;4.45;;
51248;SDS011;39642;47.556;18.728;2022-12-29T07:41:28;12.37;;;4.90;;
51248;SDS011;39642;47.556;18.728;2022-12-29T07:43:55;12.52;;;4.68;;
51248;SDS011;39642;47.556;18.728;2022-12-29T07:46:21;12.10;;;4.55;;
51248;SDS011;39642;47.556;18.728;2022-12-29T07:48:46;13.60;;;4.85;;
51248;SDS011;39642;47.556;18.728;2022-12-29T07:51:12;11.55;;;4.80;;
51248;SDS011;39642;47.556;18.728;2022-12-29T07:53:38;11.27;;;4.62;;
51248;SDS011;39642;47.556;18.728;2022-12-29T07:56:04;10.65;;;4.37;;
51248;SDS011;39642;47.556;18.728;2022-12-29T07:58:30;11.32;;;4.57;;
51248;SDS011;39642;47.556;18.728;2022-12-29T08:00:56;12.20;;;5.00;;
51248;SDS011;39642;47.556;18.728;2022-12-29T08:03:22;11.32;;;4.62;;
51248;SDS011;39642;47.556;18.728;2022-12-29T08:05:49;11.60;;;4.87;;
51248;SDS011;39642;47.556;18.728;2022-12-29T08:08:15;11.88;;;4.87;;
51248;SDS011;39642;47.556;18.728;2022-12-29T08:10:41;11.38;;;4.43;;
51248;SDS011;39642;47.556;18.728;2022-12-29T08:13:06;10.90;;;4.47;;
51248;SDS011;39642;47.556;18.728;2022-12-29T08:15:32;11.10;;;4.57;;
51248;SDS011;39642;47.556;18.728;2022-12-29T08:17:58;11.55;;;4.60;;
51248;SDS011;39642;47.556;18.728;2022-12-29T08:20:24;12.55;;;4.90;;
51248;SDS011;39642;47.556;18.728;2022-12-29T08:22:50;11.77;;;4.93;;
51248;SDS011;39642;47.556;18.728;2022-12-29T08:25:16;12.90;;;4.85;;
51248;SDS011;39642;47.556;18.728;2022-12-29T08:27:42;11.45;;;4.62;;
51248;SDS011;39642;47.556;18.728;2022-12-29T08:30:08;11.70;;;4.60;;
51248;SDS011;39642;47.556;18.728;2022-12-29T08:32:35;13.52;;;5.20;;
51248;SDS011;39642;47.556;18.728;2022-12-29T08:35:00;12.13;;;4.78;;
51248;SDS011;39642;47.556;18.728;2022-12-29T08:37:26;11.23;;;4.93;;
51248;SDS011;39642;47.556;18.728;2022-12-29T08:39:52;12.25;;;4.90;;
51248;SDS011;39642;47.556;18.728;2022-12-29T08:42:18;11.60;;;4.50;;
51248;SDS011;39642;47.556;18.728;2022-12-29T08:44:44;10.73;;;4.40;;
51248;SDS011;39642;47.556;18.728;2022-12-29T08:47:10;11.75;;;4.90;;
51248;SDS011;39642;47.556;18.728;2022-12-29T08:49:36;11.57;;;5.12;;
51248;SDS011;39642;47.556;18.728;2022-12-29T08:52:03;11.93;;;5.00;;
51248;SDS011;39642;47.556;18.728;2022-12-29T08:54:29;12.32;;;4.65;;
51248;SDS011;39642;47.556;18.728;2022-12-29T08:56:55;11.43;;;4.62;;
51248;SDS011;39642;47.556;18.728;2022-12-29T08:59:21;11.93;;;4.85;;
51248;SDS011;39642;47.556;18.728;2022-12-29T09:01:46;13.38;;;5.45;;
51248;SDS011;39642;47.556;18.728;2022-12-29T09:04:12;11.25;;;4.68;;
51248;SDS011;39642;47.556;18.728;2022-12-29T09:06:38;11.82;;;5.15;;
51248;SDS011;39642;47.556;18.728;2022-12-29T09:09:04;12.10;;;5.15;;
51248;SDS011;39642;47.556;18.728;2022-12-29T09:11:30;12.43;;;5.20;;
51248;SDS011;39642;47.556;18.728;2022-12-29T09:13:56;11.00;;;4.53;;
51248;SDS011;39642;47.556;18.728;2022-12-29T09:16:23;11.98;;;5.18;;
51248;SDS011;39642;47.556;18.728;2022-12-29T09:18:49;11.70;;;5.12;;
51248;SDS011;39642;47.556;18.728;2022-12-29T09:21:15;13.73;;;5.15;;
51248;SDS011;39642;47.556;18.728;2022-12-29T09:23:42;12.25;;;5.05;;
51248;SDS011;39642;47.556;18.728;2022-12-29T09:26:08;11.40;;;4.78;;
51248;SDS011;39642;47.556;18.728;2022-12-29T09:28:34;11.70;;;5.07;;
51248;SDS011;39642;47.556;18.728;2022-12-29T09:31:00;12.37;;;5.07;;
51248;SDS011;39642;47.556;18.728;2022-12-29T09:33:26;12.27;;;5.20;;
51248;SDS011;39642;47.556;18.728;2022-12-29T09:35:53;12.77;;;5.32;;
51248;SDS011;39642;47.556;18.728;2022-12-29T09:38:22;12.18;;;4.90;;
51248;SDS011;39642;47.556;18.728;2022-12-29T09:40:52;12.13;;;4.70;;
51248;SDS011;39642;47.556;18.728;2022-12-29T09:46:32;12.02;;;5.22;;
51248;SDS011;39642;47.556;18.728;2022-12-29T09:49:07;11.90;;;5.22;;
51248;SDS011;39642;47.556;18.728;2022-12-29T09:51:46;12.85;;;5.40;;
51248;SDS011;39642;47.556;18.728;2022-12-29T09:56:49;11.50;;;5.03;;
51248;SDS011;39642;47.556;18.728;2022-12-29T09:59:19;12.02;;;5.10;;
51248;SDS011;39642;47.556;18.728;2022-12-29T10:04:18;12.50;;;5.12;;
51248;SDS011;39642;47.556;18.728;2022-12-29T10:06:46;11.85;;;5.20;;
51248;SDS011;39642;47.556;18.728;2022-12-29T10:09:22;12.40;;;5.22;;
51248;SDS011;39642;47.556;18.728;2022-12-29T10:20:12;13.52;;;5.22;;
51248;SDS011;39642;47.556;18.728;2022-12-29T10:25:29;13.13;;;5.82;;
51248;SDS011;39642;47.556;18.728;2022-12-29T10:28:01;12.15;;;5.18;;
51248;SDS011;39642;47.556;18.728;2022-12-29T10:30:32;12.05;;;4.93;;
51248;SDS011;39642;47.556;18.728;2022-12-29T10:33:01;13.82;;;4.97;;
51248;SDS011;39642;47.556;18.728;2022-12-29T10:35:32;12.95;;;5.50;;
51248;SDS011;39642;47.556;18.728;2022-12-29T10:41:00;12.05;;;5.35;;
51248;SDS011;39642;47.556;18.728;2022-12-29T10:43:37;11.75;;;5.37;;
51248;SDS011;39642;47.556;18.728;2022-12-29T10:46:12;11.68;;;5.35;;
51248;SDS011;39642;47.556;18.728;2022-12-29T10:48:41;12.37;;;5.25;;
51248;SDS011;39642;47.556;18.728;2022-12-29T10:51:11;13.82;;;5.40;;
51248;SDS011;39642;47.556;18.728;2022-12-29T10:53:47;11.82;;;4.97;;
51248;SDS011;39642;47.556;18.728;2022-12-29T10:56:34;12.43;;;5.47;;
51248;SDS011;39642;47.556;18.728;2022-12-29T10:59:06;12.45;;;5.30;;
51248;SDS011;39642;47.556;18.728;2022-12-29T11:02:00;13.43;;;5.60;;
51248;SDS011;39642;47.556;18.728;2022-12-29T11:04:35;13.35;;;5.60;;
51248;SDS011;39642;47.556;18.728;2022-12-29T11:07:24;12.02;;;5.50;;
51248;SDS011;39642;47.556;18.728;2022-12-29T11:09:51;12.85;;;5.40;;
51248;SDS011;39642;47.556;18.728;2022-12-29T11:12:18;13.10;;;5.07;;
51248;SDS011;39642;47.556;18.728;2022-12-29T11:14:45;12.50;;;5.18;;
51248;SDS011;39642;47.556;18.728;2022-12-29T11:17:14;12.60;;;5.50;;
51248;SDS011;39642;47.556;18.728;2022-12-29T11:19:42;12.82;;;5.57;;
51248;SDS011;39642;47.556;18.728;2022-12-29T11:22:13;13.05;;;5.57;;
51248;SDS011;39642;47.556;18.728;2022-12-29T11:24:46;11.85;;;5.25;;
51248;SDS011;39642;47.556;18.728;2022-12-29T11:27:14;12.45;;;5.45;;
51248;SDS011;39642;47.556;18.728;2022-12-29T11:29:44;13.82;;;5.80;;
51248;SDS011;39642;47.556;18.728;2022-12-29T11:32:28;13.65;;;5.60;;
51248;SDS011;39642;47.556;18.728;2022-12-29T11:34:57;12.88;;;5.30;;
51248;SDS011;39642;47.556;18.728;2022-12-29T11:37:29;11.82;;;5.37;;
51248;SDS011;39642;47.556;18.728;2022-12-29T11:40:02;12.80;;;5.28;;
51248;SDS011;39642;47.556;18.728;2022-12-29T11:45:05;13.15;;;5.78;;
51248;SDS011;39642;47.556;18.728;2022-12-29T11:47:32;12.88;;;5.10;;
51248;SDS011;39642;47.556;18.728;2022-12-29T11:50:00;13.18;;;5.80;;
51248;SDS011;39642;47.556;18.728;2022-12-29T11:52:29;13.07;;;5.40;;
51248;SDS011;39642;47.556;18.728;2022-12-29T11:55:01;12.15;;;5.15;;
51248;SDS011;39642;47.556;18.728;2022-12-29T11:57:31;12.75;;;5.40;;
51248;SDS011;39642;47.556;18.728;2022-12-29T12:00:00;12.25;;;5.15;;
51248;SDS011;39642;47.556;18.728;2022-12-29T12:05:03;12.13;;;5.43;;
51248;SDS011;39642;47.556;18.728;2022-12-29T12:07:46;12.65;;;5.62;;
51248;SDS011;39642;47.556;18.728;2022-12-29T12:10:20;11.95;;;5.68;;
51248;SDS011;39642;47.556;18.728;2022-12-29T12:13:05;12.15;;;5.57;;
51248;SDS011;39642;47.556;18.728;2022-12-29T12:15:41;12.35;;;5.97;;
51248;SDS011;39642;47.556;18.728;2022-12-29T12:18:15;12.77;;;5.70;;
51248;SDS011;39642;47.556;18.728;2022-12-29T12:20:52;14.52;;;6.05;;
51248;SDS011;39642;47.556;18.728;2022-12-29T12:26:21;13.07;;;5.60;;
51248;SDS011;39642;47.556;18.728;2022-12-29T12:28:56;13.98;;;5.60;;
51248;SDS011;39642;47.556;18.728;2022-12-29T12:34:49;14.63;;;5.87;;
51248;SDS011;39642;47.556;18.728;2022-12-29T12:45:36;13.62;;;5.80;;
51248;SDS011;39642;47.556;18.728;2022-12-29T12:49:11;13.88;;;5.87;;
51248;SDS011;39642;47.556;18.728;2022-12-29T12:59:33;11.75;;;5.53;;
51248;SDS011;39642;47.556;18.728;2022-12-29T13:02:34;13.73;;;5.68;;
51248;SDS011;39642;47.556;18.728;2022-12-29T13:05:14;12.13;;;5.57;;
51248;SDS011;39642;47.556;18.728;2022-12-29T13:10:44;13.38;;;5.80;;
51248;SDS011;39642;47.556;18.728;2022-12-29T13:13:30;13.27;;;5.75;;
51248;SDS011;39642;47.556;18.728;2022-12-29T13:16:13;13.62;;;5.97;;
51248;SDS011;39642;47.556;18.728;2022-12-29T13:21:33;15.10;;;6.25;;
51248;SDS011;39642;47.556;18.728;2022-12-29T13:27:04;13.65;;;6.18;;
51248;SDS011;39642;47.556;18.728;2022-12-29T13:32:34;12.32;;;5.82;;
51248;SDS011;39642;47.556;18.728;2022-12-29T13:38:03;13.27;;;6.10;;
51248;SDS011;39642;47.556;18.728;2022-12-29T13:40:36;14.23;;;6.70;;
51248;SDS011;39642;47.556;18.728;2022-12-29T13:43:07;14.00;;;5.77;;
51248;SDS011;39642;47.556;18.728;2022-12-29T13:45:34;14.00;;;5.90;;
51248;SDS011;39642;47.556;18.728;2022-12-29T13:50:45;13.02;;;5.87;;
51248;SDS011;39642;47.556;18.728;2022-12-29T13:56:16;13.75;;;6.50;;
51248;SDS011;39642;47.556;18.728;2022-12-29T13:58:57;13.60;;;5.95;;
51248;SDS011;39642;47.556;18.728;2022-12-29T14:01:49;12.63;;;6.10;;
51248;SDS011;39642;47.556;18.728;2022-12-29T14:04:27;13.05;;;5.97;;
51248;SDS011;39642;47.556;18.728;2022-12-29T14:07:05;12.63;;;5.85;;
51248;SDS011;39642;47.556;18.728;2022-12-29T14:17:36;14.45;;;6.47;;
51248;SDS011;39642;47.556;18.728;2022-12-29T14:20:05;13.85;;;6.35;;
51248;SDS011;39642;47.556;18.728;2022-12-29T14:28:37;13.50;;;6.03;;
51248;SDS011;39642;47.556;18.728;2022-12-29T14:31:17;13.85;;;6.70;;
51248;SDS011;39642;47.556;18.728;2022-12-29T14:36:35;13.38;;;6.28;;
51248;SDS011;39642;47.556;18.728;2022-12-29T14:39:26;13.82;;;6.28;;
51248;SDS011;39642;47.556;18.728;2022-12-29T14:50:45;13.38;;;6.03;;
51248;SDS011;39642;47.556;18.728;2022-12-29T14:53:04;14.50;;;6.37;;
51248;SDS011;39642;47.556;18.728;2022-12-29T14:55:41;15.65;;;6.85;;
51248;SDS011;39642;47.556;18.728;2022-12-29T14:58:14;14.05;;;6.45;;
51248;SDS011;39642;47.556;18.728;2022-12-29T15:00:51;12.95;;;6.53;;
51248;SDS011;39642;47.556;18.728;2022-12-29T15:08:24;14.70;;;6.72;;
51248;SDS011;39642;47.556;18.728;2022-12-29T15:10:57;14.37;;;6.50;;
51248;SDS011;39642;47.556;18.728;2022-12-29T15:13:34;14.07;;;6.43;;
51248;SDS011;39642;47.556;18.728;2022-12-29T15:16:02;14.38;;;6.50;;
51248;SDS011;39642;47.556;18.728;2022-12-29T15:18:30;13.90;;;6.72;;
51248;SDS011;39642;47.556;18.728;2022-12-29T15:20:58;13.50;;;6.55;;
51248;SDS011;39642;47.556;18.728;2022-12-29T15:23:26;13.93;;;6.82;;
51248;SDS011;39642;47.556;18.728;2022-12-29T15:25:58;13.93;;;7.15;;
51248;SDS011;39642;47.556;18.728;2022-12-29T15:28:27;15.60;;;7.07;;
51248;SDS011;39642;47.556;18.728;2022-12-29T15:31:02;15.00;;;7.30;;
51248;SDS011;39642;47.556;18.728;2022-12-29T15:33:30;16.80;;;7.70;;
51248;SDS011;39642;47.556;18.728;2022-12-29T15:35:57;15.88;;;7.55;;
51248;SDS011;39642;47.556;18.728;2022-12-29T15:38:29;14.55;;;6.97;;
51248;SDS011;39642;47.556;18.728;2022-12-29T15:40:57;15.65;;;7.87;;
51248;SDS011;39642;47.556;18.728;2022-12-29T15:46:06;15.73;;;7.47;;
51248;SDS011;39642;47.556;18.728;2022-12-29T15:48:32;14.80;;;8.00;;
51248;SDS011;39642;47.556;18.728;2022-12-29T15:50:58;14.90;;;7.25;;
51248;SDS011;39642;47.556;18.728;2022-12-29T15:53:27;15.20;;;7.60;;
51248;SDS011;39642;47.556;18.728;2022-12-29T15:55:56;15.77;;;7.75;;
51248;SDS011;39642;47.556;18.728;2022-12-29T15:58:29;16.95;;;8.43;;
51248;SDS011;39642;47.556;18.728;2022-12-29T16:00:59;16.15;;;8.30;;
51248;SDS011;39642;47.556;18.728;2022-12-29T16:03:35;16.08;;;7.80;;
51248;SDS011;39642;47.556;18.728;2022-12-29T16:06:10;16.58;;;8.00;;
51248;SDS011;39642;47.556;18.728;2022-12-29T16:08:55;16.12;;;8.35;;
51248;SDS011;39642;47.556;18.728;2022-12-29T16:11:49;15.95;;;8.00;;
51248;SDS011;39642;47.556;18.728;2022-12-29T16:14:18;16.73;;;8.20;;
51248;SDS011;39642;47.556;18.728;2022-12-29T16:16:47;17.73;;;8.23;;
51248;SDS011;39642;47.556;18.728;2022-12-29T16:19:49;16.55;;;8.10;;
51248;SDS011;39642;47.556;18.728;2022-12-29T16:22:12;18.05;;;9.07;;
51248;SDS011;39642;47.556;18.728;2022-12-29T16:24:46;17.85;;;8.80;;
51248;SDS011;39642;47.556;18.728;2022-12-29T16:29:56;18.65;;;9.45;;
51248;SDS011;39642;47.556;18.728;2022-12-29T16:32:26;18.25;;;9.38;;
51248;SDS011;39642;47.556;18.728;2022-12-29T16:35:09;18.52;;;8.82;;
51248;SDS011;39642;47.556;18.728;2022-12-29T16:37:38;18.20;;;8.82;;
51248;SDS011;39642;47.556;18.728;2022-12-29T16:42:49;17.33;;;8.98;;
51248;SDS011;39642;47.556;18.728;2022-12-29T16:47:45;17.60;;;9.00;;
51248;SDS011;39642;47.556;18.728;2022-12-29T16:50:12;19.27;;;9.25;;
51248;SDS011;39642;47.556;18.728;2022-12-29T16:52:42;18.40;;;9.23;;
51248;SDS011;39642;47.556;18.728;2022-12-29T16:55:14;17.42;;;8.60;;
51248;SDS011;39642;47.556;18.728;2022-12-29T16:57:42;19.67;;;9.98;;
51248;SDS011;39642;47.556;18.728;2022-12-29T17:00:23;19.52;;;9.40;;
51248;SDS011;39642;47.556;18.728;2022-12-29T17:02:52;20.33;;;9.82;;
51248;SDS011;39642;47.556;18.728;2022-12-29T17:05:22;20.05;;;9.82;;
51248;SDS011;39642;47.556;18.728;2022-12-29T17:07:48;19.10;;;9.35;;
51248;SDS011;39642;47.556;18.728;2022-12-29T17:10:14;19.25;;;9.45;;
51248;SDS011;39642;47.556;18.728;2022-12-29T17:12:41;18.98;;;8.77;;